SKBO/BOG METAR and TAF weather

Enter ICAO airport designator
Station Type Date Time Source
SKBO METAR 2019/04/22 18:00 UTC NOAA

SKBO 221800Z 33010KT 9999 5000SE -TSRA FEW010CB BKN017 15/13 A3032 RMK CB/NE/S


Station Type Date Time Source
SKBO Decoded METAR 2019/04/22 18:00 UTC NOAA

Bogota / Eldorado, Colombia (SKBO) 04-43N 074-09W 2548M
Apr 22, 2019 - 02:00 PM EDT / 2019.04.22 1800 UTC
Wind: from the NNW (330 degrees) at 12 MPH (10 KT):0
Visibility: greater than 7 mile(s):0
Sky conditions: mostly cloudy
Weather: light rain with thunder; Cumulonimbus clouds observed
Temperature: 59 F (15 C)
Dew Point: 55 F (13 C)
Relative Humidity: 87%
Pressure (altimeter): 30.32 in. Hg (1026 hPa)
ob: SKBO 221800Z 33010KT 9999 5000SE -TSRA FEW010CB BKN017 15/13 A3032 RMK CB/NE/S
cycle: 18

Station Type Date Time Source
SKBO TAF 2019/04/22 18:42 UTC NOAA

TAF TAF SKBO 221630Z 2218/2318 29010KT 9999 SCT018 SCT090
TEMPO 2218/2223 6000 TSRA SCT018CB
TEMPO 2223/2304 8000 RA SCT017CB
BECMG 2303/2305 VRB02KT
TEMPO 2308/2312 7000 VCFG DZ BKN012 TX20/2218Z TN10/2311Z

Example: see airport list